createdAt,value
2023-08-28T00:00:49.779Z,11.8
2023-08-28T00:01:49.770Z,11.8
2023-08-28T00:02:50.429Z,11.9
2023-08-28T00:03:50.378Z,11.8
2023-08-28T00:04:50.311Z,11.9
2023-08-28T00:05:49.815Z,11.8
2023-08-28T00:06:49.749Z,11.9
2023-08-28T00:07:49.936Z,11.9
2023-08-28T00:08:50.417Z,11.8
2023-08-28T00:09:49.824Z,11.8
2023-08-28T00:10:50.084Z,12
2023-08-28T00:11:49.762Z,11.9
2023-08-28T00:12:49.841Z,11.8
2023-08-28T00:13:49.759Z,11.9
2023-08-28T00:14:49.592Z,11.8
2023-08-28T00:15:50.002Z,11.8
2023-08-28T00:16:49.755Z,11.7
2023-08-28T00:17:50.216Z,11.7
2023-08-28T00:18:49.765Z,11.6
2023-08-28T00:19:49.796Z,11.6
2023-08-28T00:20:49.941Z,11.6
2023-08-28T00:21:50.655Z,11.6
2023-08-28T00:22:50.134Z,11.8
2023-08-28T00:23:49.762Z,11.7
2023-08-28T00:24:49.767Z,11.8
2023-08-28T00:25:49.755Z,11.7
2023-08-28T00:26:49.856Z,11.8
2023-08-28T00:27:49.766Z,11.7
2023-08-28T00:28:49.759Z,11.7
2023-08-28T00:29:50.030Z,11.8
2023-08-28T00:30:50.094Z,11.8
2023-08-28T00:31:50.425Z,11.8
2023-08-28T00:32:49.944Z,11.8
2023-08-28T00:33:49.786Z,11.8
2023-08-28T00:34:49.815Z,11.8
2023-08-28T00:35:50.160Z,11.7
2023-08-28T00:37:49.762Z,11.8
2023-08-28T00:38:49.763Z,11.8
2023-08-28T00:39:49.755Z,11.8
2023-08-28T00:40:50.517Z,11.8
2023-08-28T00:41:49.742Z,11.8
2023-08-28T00:42:49.763Z,11.7
2023-08-28T00:43:49.745Z,11.8
2023-08-28T00:44:49.080Z,11.7
2023-08-28T00:45:49.778Z,11.8
2023-08-28T00:46:49.760Z,11.9
2023-08-28T00:47:49.827Z,11.8
2023-08-28T00:48:49.891Z,11.8
2023-08-28T00:50:49.783Z,11.7
2023-08-28T00:51:49.750Z,11.7
2023-08-28T00:52:49.254Z,11.6
2023-08-28T00:53:49.786Z,11.6
2023-08-28T00:55:49.763Z,11.6
2023-08-28T00:56:49.791Z,11.6
2023-08-28T00:57:49.757Z,11.7
2023-08-28T00:58:49.813Z,11.7
2023-08-28T01:00:52.298Z,11.8
2023-08-28T01:01:49.780Z,11.9
2023-08-28T01:02:49.798Z,11.8
2023-08-28T01:03:49.785Z,11.8
2023-08-28T01:05:49.819Z,11.8
2023-08-28T01:06:49.752Z,11.7
2023-08-28T01:07:49.913Z,11.7
2023-08-28T01:08:49.773Z,11.6
2023-08-28T01:10:49.762Z,11.6
2023-08-28T01:11:49.772Z,11.7
2023-08-28T01:12:49.802Z,11.6
2023-08-28T01:13:50.079Z,11.6
2023-08-28T01:14:48.838Z,11.6
2023-08-28T01:15:49.813Z,11.6
2023-08-28T01:16:49.888Z,11.7
2023-08-28T01:17:50.540Z,11.6
2023-08-28T01:18:49.798Z,11.6
2023-08-28T01:19:50.434Z,11.6
2023-08-28T01:20:50.335Z,11.6
2023-08-28T01:21:50.585Z,11.6
2023-08-28T01:22:49.785Z,11.6
2023-08-28T01:23:50.165Z,11.5
2023-08-28T01:24:49.812Z,11.6
2023-08-28T01:26:49.780Z,11.5
2023-08-28T01:27:49.755Z,11.4
2023-08-28T01:28:50.347Z,11.4
2023-08-28T01:29:49.773Z,11.6
2023-08-28T01:30:49.933Z,11.5
2023-08-28T01:31:49.820Z,11.4
2023-08-28T01:32:49.831Z,11.4
2023-08-28T01:33:49.774Z,11.4
2023-08-28T01:34:49.766Z,11.4
2023-08-28T01:35:49.766Z,11.5
2023-08-28T01:36:49.771Z,11.4
2023-08-28T01:37:50.380Z,11.3
2023-08-28T01:38:50.300Z,11.3
2023-08-28T01:39:50.038Z,11.3
2023-08-28T01:40:49.783Z,11.3
2023-08-28T01:41:49.753Z,11.6
2023-08-28T01:42:49.762Z,11.4
2023-08-28T01:43:50.367Z,11.5
2023-08-28T01:45:50.266Z,11.4
2023-08-28T01:46:49.839Z,11.4
2023-08-28T01:47:49.913Z,11.4
2023-08-28T01:48:49.754Z,11.3
2023-08-28T01:49:49.760Z,11.4
2023-08-28T01:50:49.774Z,11.3
2023-08-28T01:51:49.840Z,11.4
2023-08-28T01:52:49.784Z,11.4
2023-08-28T01:53:49.782Z,11.5
2023-08-28T01:54:50.432Z,11.4
2023-08-28T01:55:50.201Z,11.4
2023-08-28T01:56:50.396Z,11.3
2023-08-28T01:57:49.802Z,11.3
2023-08-28T01:58:49.784Z,11.3
2023-08-28T01:59:50.704Z,11.3
2023-08-28T02:00:44.989Z,11.3
2023-08-28T02:01:49.828Z,11.3
2023-08-28T02:02:49.856Z,11.2
2023-08-28T02:03:50.417Z,11.3
2023-08-28T02:04:49.774Z,11.2
2023-08-28T02:05:49.908Z,11.3
2023-08-28T02:06:50.012Z,11.2
2023-08-28T02:07:50.099Z,11.2
2023-08-28T02:08:49.998Z,11.2
2023-08-28T02:09:50.647Z,11.2
2023-08-28T02:10:49.758Z,11.1
2023-08-28T02:11:50.287Z,11.2
2023-08-28T02:12:49.761Z,11.1
2023-08-28T02:13:50.446Z,11
2023-08-28T02:15:49.765Z,11
2023-08-28T02:16:50.210Z,10.9
2023-08-28T02:17:49.793Z,10.9
2023-08-28T02:18:49.766Z,10.9
2023-08-28T02:19:49.776Z,11
2023-08-28T02:21:49.767Z,11.1
2023-08-28T02:22:49.800Z,11
2023-08-28T02:23:49.789Z,10.9
2023-08-28T02:24:49.795Z,11
2023-08-28T02:25:49.970Z,11.1
2023-08-28T02:26:49.759Z,11.1
2023-08-28T02:27:49.920Z,11.1
2023-08-28T02:28:49.769Z,11.2
2023-08-28T02:29:49.758Z,11.2
2023-08-28T02:30:50.646Z,11.3
2023-08-28T02:31:49.755Z,11.3
2023-08-28T02:32:50.750Z,11.3
2023-08-28T02:33:50.609Z,11.3
2023-08-28T02:35:49.917Z,11.2
2023-08-28T02:36:49.787Z,11.2
2023-08-28T02:37:49.820Z,11.2
2023-08-28T02:38:50.338Z,11.2
2023-08-28T02:39:49.760Z,11.2
2023-08-28T02:40:50.086Z,11.2
2023-08-28T02:41:49.790Z,11.1
2023-08-28T02:42:49.782Z,11.1
2023-08-28T02:43:49.855Z,11.1
2023-08-28T02:44:49.133Z,11.1
2023-08-28T02:45:49.775Z,11.1
2023-08-28T02:46:50.198Z,11.1
2023-08-28T02:47:49.833Z,11.1
2023-08-28T02:48:50.724Z,11.2
2023-08-28T02:49:49.781Z,11.3
2023-08-28T02:50:50.531Z,11.3
2023-08-28T02:51:49.775Z,11.3
2023-08-28T02:52:49.784Z,11.3
2023-08-28T02:53:50.372Z,11.3
2023-08-28T02:54:49.765Z,11.4
2023-08-28T02:55:50.616Z,11.4
2023-08-28T02:56:49.783Z,11.4
2023-08-28T02:57:50.456Z,11.4
2023-08-28T02:58:49.776Z,11.4
2023-08-28T02:59:50.300Z,11.3
2023-08-28T03:00:49.780Z,11.3
2023-08-28T03:01:49.879Z,11.3
2023-08-28T03:02:49.896Z,11.3
2023-08-28T03:03:49.851Z,11.4
2023-08-28T03:04:50.326Z,11.3
2023-08-28T03:05:49.774Z,11.3
2023-08-28T03:06:50.611Z,11.3
2023-08-28T03:07:49.790Z,11.3
2023-08-28T03:08:49.786Z,11.3
2023-08-28T03:09:50.668Z,11.3
2023-08-28T03:10:49.789Z,11.3
2023-08-28T03:11:49.791Z,11.3
2023-08-28T03:12:49.969Z,11.3
2023-08-28T03:13:49.784Z,11.2
2023-08-28T03:15:49.760Z,11.2
2023-08-28T03:16:49.771Z,11.2
2023-08-28T03:17:50.476Z,11.2
2023-08-28T03:18:49.782Z,11.2
2023-08-28T03:19:49.780Z,11.1
2023-08-28T03:20:49.771Z,11.1
2023-08-28T03:21:49.790Z,11.1
2023-08-28T03:22:49.004Z,11.1
2023-08-28T03:23:49.778Z,11.1
2023-08-28T03:24:49.777Z,11.1
2023-08-28T03:25:50.043Z,11.1
2023-08-28T03:27:50.017Z,11.2
2023-08-28T03:28:49.771Z,11.1
2023-08-28T03:29:49.766Z,11.1
2023-08-28T03:30:50.552Z,11.1
2023-08-28T03:31:49.842Z,11.1
2023-08-28T03:32:50.362Z,11.1
2023-08-28T03:33:49.791Z,11
2023-08-28T03:34:50.290Z,11
2023-08-28T03:35:50.509Z,11
2023-08-28T03:36:49.761Z,11
2023-08-28T03:37:49.762Z,10.9
2023-08-28T03:38:49.854Z,10.9
2023-08-28T03:39:49.783Z,11
2023-08-28T03:40:50.435Z,11
2023-08-28T03:41:49.792Z,11.1
2023-08-28T03:42:50.118Z,11.1
2023-08-28T03:43:49.971Z,10.9
2023-08-28T03:44:49.031Z,10.9
2023-08-28T03:45:49.796Z,10.9
2023-08-28T03:46:50.309Z,11.1
2023-08-28T03:47:49.839Z,11.1
2023-08-28T03:48:49.810Z,11.1
2023-08-28T03:49:49.821Z,11.1
2023-08-28T03:50:49.772Z,11.1
2023-08-28T03:51:49.797Z,11.1
2023-08-28T03:52:49.771Z,11
2023-08-28T03:53:49.794Z,11
2023-08-28T03:54:50.528Z,11.1
2023-08-28T03:55:50.596Z,11.1
2023-08-28T03:56:49.820Z,11.1
2023-08-28T03:57:49.778Z,11.1
2023-08-28T03:58:49.793Z,11
2023-08-28T04:00:50.463Z,11
2023-08-28T04:01:49.812Z,11.1
2023-08-28T04:02:48.905Z,11.1
2023-08-28T04:03:50.241Z,11.1
2023-08-28T04:05:01.962Z,11.1
2023-08-28T04:05:49.834Z,11.1
2023-08-28T04:06:50.230Z,11.1
2023-08-28T04:07:50.464Z,11.1
2023-08-28T04:08:49.775Z,11.1
2023-08-28T04:09:49.801Z,11.1
2023-08-28T04:10:50.552Z,11.1
2023-08-28T04:11:49.800Z,11.1
2023-08-28T04:12:49.825Z,11.2
2023-08-28T04:13:49.807Z,11.2
2023-08-28T04:14:48.851Z,11.3
2023-08-28T04:15:51.154Z,11.2
2023-08-28T04:17:50.349Z,11.1
2023-08-28T04:18:50.373Z,11.1
2023-08-28T04:19:50.008Z,11.1
2023-08-28T04:20:49.811Z,11.2
2023-08-28T04:21:49.847Z,11.2
2023-08-28T04:22:49.762Z,11.2
2023-08-28T04:23:50.573Z,11.2
2023-08-28T04:25:49.805Z,11.2
2023-08-28T04:26:49.784Z,11.2
2023-08-28T04:27:49.790Z,11.1
2023-08-28T04:28:50.261Z,11.1
2023-08-28T04:29:51.020Z,11.1
2023-08-28T04:30:49.777Z,11.1
2023-08-28T04:31:49.876Z,11.1
2023-08-28T04:32:49.867Z,11.1
2023-08-28T04:33:49.780Z,11.1
2023-08-28T04:34:49.791Z,11
2023-08-28T04:35:50.185Z,11.1
2023-08-28T04:36:50.073Z,11.1
2023-08-28T04:37:49.786Z,11.1
2023-08-28T04:38:49.793Z,11.1
2023-08-28T04:39:49.813Z,11.1
2023-08-28T04:40:50.546Z,11.1
2023-08-28T04:41:49.787Z,11.2
2023-08-28T04:42:50.267Z,11.1
2023-08-28T04:43:50.543Z,11.1
2023-08-28T04:45:49.834Z,11.1
2023-08-28T04:46:49.790Z,11.1
2023-08-28T04:47:49.799Z,11.1
2023-08-28T04:48:50.486Z,11.1
2023-08-28T04:49:49.814Z,10.9
2023-08-28T04:50:49.793Z,11
2023-08-28T04:51:49.806Z,11
2023-08-28T04:52:49.782Z,11
2023-08-28T04:53:49.798Z,11
2023-08-28T04:54:50.321Z,11
2023-08-28T04:55:50.336Z,10.9
2023-08-28T04:56:49.884Z,10.9
2023-08-28T04:57:50.181Z,11
2023-08-28T04:58:49.816Z,11
2023-08-28T04:59:49.848Z,11.1
2023-08-28T05:00:50.028Z,11
2023-08-28T05:01:49.850Z,11
2023-08-28T05:02:49.829Z,11.1
2023-08-28T05:03:49.960Z,11.1
2023-08-28T05:04:49.808Z,11.1
2023-08-28T05:05:49.795Z,11.1
2023-08-28T05:06:49.841Z,11.1
2023-08-28T05:07:50.499Z,11.1
2023-08-28T05:08:50.378Z,11.2
2023-08-28T05:10:49.792Z,11
2023-08-28T05:11:49.805Z,11
2023-08-28T05:12:49.804Z,10.9
2023-08-28T05:13:50.393Z,10.9
2023-08-28T05:14:48.864Z,10.9
2023-08-28T05:15:49.834Z,10.9
2023-08-28T05:16:50.615Z,10.9
2023-08-28T05:17:49.853Z,10.9
2023-08-28T05:18:49.790Z,11
2023-08-28T05:19:49.794Z,10.9
2023-08-28T05:20:49.919Z,10.9
2023-08-28T05:21:49.988Z,11
2023-08-28T05:22:49.796Z,11
2023-08-28T05:23:49.785Z,11
2023-08-28T05:24:50.680Z,10.9
2023-08-28T05:25:49.781Z,11
2023-08-28T05:26:50.417Z,11
2023-08-28T05:27:49.831Z,11.1
2023-08-28T05:28:49.819Z,11.1
2023-08-28T05:29:50.373Z,11.1
2023-08-28T05:30:49.851Z,11.1
2023-08-28T05:31:49.790Z,11.1
2023-08-28T05:32:50.325Z,11.1
2023-08-28T05:33:50.633Z,11.1
2023-08-28T05:35:50.524Z,11.1
2023-08-28T05:36:50.197Z,11.2
2023-08-28T05:37:50.346Z,11.1
2023-08-28T05:38:50.027Z,11.2
2023-08-28T05:40:49.806Z,11.3
2023-08-28T05:41:50.342Z,11.3
2023-08-28T05:42:50.396Z,11.3
2023-08-28T05:43:50.082Z,11.3
2023-08-28T05:44:49.220Z,11.3
2023-08-28T05:45:49.809Z,11.3
2023-08-28T05:46:49.870Z,11.3
2023-08-28T05:47:49.875Z,11.3
2023-08-28T05:48:50.349Z,11.3
2023-08-28T05:50:49.794Z,11.3
2023-08-28T05:51:49.803Z,11.4
2023-08-28T05:52:49.544Z,11.4
2023-08-28T05:53:49.836Z,11.4
2023-08-28T05:54:50.323Z,11.4
2023-08-28T05:55:49.806Z,11.3
2023-08-28T05:56:49.796Z,11.3
2023-08-28T05:57:49.797Z,11.3
2023-08-28T05:58:49.786Z,11.4
2023-08-28T05:59:49.793Z,11.4
2023-08-28T06:00:49.885Z,11.4
2023-08-28T06:01:50.326Z,11.4
2023-08-28T06:02:49.948Z,11.4
2023-08-28T06:03:49.971Z,11.4
2023-08-28T06:05:49.972Z,11.5
2023-08-28T06:06:50.376Z,11.6
2023-08-28T06:07:49.794Z,11.6
2023-08-28T06:08:50.128Z,11.7
2023-08-28T06:09:49.808Z,11.6
2023-08-28T06:10:49.798Z,11.8
2023-08-28T06:11:50.285Z,11.8
2023-08-28T06:12:50.422Z,11.8
2023-08-28T06:14:49.358Z,11.7
2023-08-28T06:15:49.785Z,11.8
2023-08-28T06:16:49.827Z,11.8
2023-08-28T06:17:49.907Z,11.8
2023-08-28T06:18:51.331Z,11.8
2023-08-28T06:19:50.696Z,11.9
2023-08-28T06:20:49.861Z,11.8
2023-08-28T06:21:49.933Z,11.9
2023-08-28T06:22:49.788Z,11.9
2023-08-28T06:23:49.789Z,12
2023-08-28T06:24:49.818Z,12.1
2023-08-28T06:25:49.810Z,12.1
2023-08-28T06:26:49.801Z,12.1
2023-08-28T06:27:50.012Z,12.1
2023-08-28T06:28:49.909Z,12.1
2023-08-28T06:30:50.555Z,12.2
2023-08-28T06:31:49.829Z,12.1
2023-08-28T06:32:49.844Z,12.1
2023-08-28T06:33:49.999Z,12.1
2023-08-28T06:34:50.380Z,12.2
2023-08-28T06:35:50.006Z,12.3
2023-08-28T06:36:50.185Z,12.4
2023-08-28T06:37:49.879Z,12.3
2023-08-28T06:38:49.832Z,12.3
2023-08-28T06:39:50.448Z,12.4
2023-08-28T06:40:49.815Z,12.4
2023-08-28T06:41:49.788Z,12.5
2023-08-28T06:42:50.420Z,12.5
2023-08-28T06:43:49.807Z,12.4
2023-08-28T06:44:49.689Z,12.4
2023-08-28T06:45:49.803Z,12.6
2023-08-28T06:46:49.838Z,12.6
2023-08-28T06:47:49.861Z,12.7
2023-08-28T06:48:50.393Z,12.7
2023-08-28T06:50:50.388Z,12.9
2023-08-28T06:51:50.350Z,12.9
2023-08-28T06:52:52.230Z,12.9
2023-08-28T06:53:49.800Z,12.9
2023-08-28T06:54:51.865Z,12.8
2023-08-28T06:55:49.815Z,12.8
2023-08-28T06:56:50.172Z,12.8
2023-08-28T06:57:49.814Z,12.9
2023-08-28T06:58:49.797Z,12.9
2023-08-28T06:59:49.911Z,12.9
2023-08-28T07:00:49.856Z,13
2023-08-28T07:01:49.916Z,13
2023-08-28T07:02:49.909Z,12.8
2023-08-28T07:03:50.595Z,12.8
2023-08-28T07:05:49.793Z,12.9
2023-08-28T07:06:49.801Z,13
2023-08-28T07:07:50.634Z,13
2023-08-28T07:08:49.794Z,13
2023-08-28T07:09:49.813Z,12.8
2023-08-28T07:10:50.562Z,12.8
2023-08-28T07:11:49.843Z,12.9
2023-08-28T07:12:49.801Z,13
2023-08-28T07:13:50.406Z,13.1
2023-08-28T07:14:48.872Z,12.9
2023-08-28T07:15:50.413Z,12.9
2023-08-28T07:16:48.958Z,13
2023-08-28T07:17:49.806Z,13
2023-08-28T07:18:50.281Z,13.1
2023-08-28T07:19:49.790Z,13.2
2023-08-28T07:20:50.214Z,13.3
2023-08-28T07:21:49.814Z,13.4
2023-08-28T07:22:50.658Z,13.4
2023-08-28T07:23:49.794Z,13.2
2023-08-28T07:24:49.808Z,13.3
2023-08-28T07:25:49.797Z,13.4
2023-08-28T07:26:50.089Z,13.5
2023-08-28T07:27:49.824Z,13.5
2023-08-28T07:28:50.681Z,13.6
2023-08-28T07:30:50.626Z,13.6
2023-08-28T07:31:49.820Z,13.7
2023-08-28T07:32:49.812Z,13.8
2023-08-28T07:33:49.811Z,13.8
2023-08-28T07:34:50.158Z,13.9
2023-08-28T07:35:50.425Z,13.9
2023-08-28T07:36:49.849Z,13.9
2023-08-28T07:37:49.819Z,14
2023-08-28T07:38:49.816Z,13.9
2023-08-28T07:39:50.274Z,14
2023-08-28T07:40:49.836Z,14
2023-08-28T07:41:50.644Z,14
2023-08-28T07:42:49.817Z,14
2023-08-28T07:43:49.805Z,13.9
2023-08-28T07:44:48.901Z,14
2023-08-28T07:45:49.836Z,13.9
2023-08-28T07:46:49.806Z,13.9
2023-08-28T07:47:49.834Z,13.9
2023-08-28T07:48:50.223Z,13.8
2023-08-28T07:49:49.815Z,13.9
2023-08-28T07:50:50.576Z,14
2023-08-28T07:52:50.460Z,13.9
2023-08-28T07:53:49.823Z,14
2023-08-28T07:54:49.799Z,14
2023-08-28T07:55:49.798Z,14
2023-08-28T07:56:49.815Z,13.9
2023-08-28T07:57:50.174Z,14
2023-08-28T07:58:50.223Z,14
2023-08-28T07:59:49.870Z,13.8
2023-08-28T08:00:51.687Z,14
2023-08-28T08:01:49.889Z,14
2023-08-28T08:02:49.850Z,14
2023-08-28T08:03:49.849Z,13.9
2023-08-28T08:04:49.826Z,13.7
2023-08-28T08:05:50.385Z,13.4
2023-08-28T08:06:49.828Z,13.4
2023-08-28T08:07:50.534Z,13.6
2023-08-28T08:09:50.441Z,13.8
2023-08-28T08:10:49.988Z,13.9
2023-08-28T08:11:49.842Z,13.6
2023-08-28T08:12:49.830Z,13.5
2023-08-28T08:13:49.959Z,13.6
2023-08-28T08:14:49.025Z,13.5
2023-08-28T08:15:49.819Z,13.3
2023-08-28T08:16:49.820Z,13.4
2023-08-28T08:17:49.855Z,13.6
2023-08-28T08:18:49.817Z,13.6
2023-08-28T08:19:49.840Z,13.5
2023-08-28T08:20:49.799Z,13.4
2023-08-28T08:21:50.374Z,13.4
2023-08-28T08:22:49.069Z,13.3
2023-08-28T08:23:50.565Z,13.5
2023-08-28T08:24:49.854Z,13.5
2023-08-28T08:25:49.838Z,13.4
2023-08-28T08:26:49.814Z,13.5
2023-08-28T08:27:49.813Z,13.3
2023-08-28T08:28:49.808Z,13.4
2023-08-28T08:29:50.143Z,13.4
2023-08-28T08:30:49.814Z,13.5
2023-08-28T08:31:49.921Z,13.6
2023-08-28T08:32:49.870Z,13.7
2023-08-28T08:33:50.285Z,13.6
2023-08-28T08:34:49.839Z,13.5
2023-08-28T08:35:49.817Z,13.7
2023-08-28T08:36:49.807Z,13.5
2023-08-28T08:37:50.520Z,13.6
2023-08-28T08:38:49.860Z,13.7
2023-08-28T08:39:49.847Z,13.7
2023-08-28T08:40:50.360Z,13.8
2023-08-28T08:41:51.967Z,13.8
2023-08-28T08:42:50.245Z,13.8
2023-08-28T08:43:50.043Z,13.9
2023-08-28T08:44:48.989Z,14
2023-08-28T08:45:49.849Z,14.2
2023-08-28T08:46:49.999Z,14
2023-08-28T08:47:50.397Z,14
2023-08-28T08:48:49.829Z,13.8
2023-08-28T08:49:50.041Z,14
2023-08-28T08:50:50.288Z,14
2023-08-28T08:51:49.820Z,13.8
2023-08-28T08:52:49.820Z,13.9
2023-08-28T08:53:49.824Z,14
2023-08-28T08:54:49.842Z,13.9
2023-08-28T08:55:49.838Z,13.9
2023-08-28T08:56:50.429Z,13.9
2023-08-28T08:57:49.927Z,14
2023-08-28T08:58:50.300Z,14
2023-08-28T08:59:49.834Z,13.8
2023-08-28T09:00:49.852Z,14
2023-08-28T09:01:49.843Z,13.8
2023-08-28T09:02:50.684Z,13.8
2023-08-28T09:03:49.896Z,13.9
2023-08-28T09:04:50.045Z,14
2023-08-28T09:05:50.657Z,13.9
2023-08-28T09:06:49.848Z,14.2
2023-08-28T09:07:50.091Z,14.1
2023-08-28T09:08:50.455Z,14
2023-08-28T09:09:50.757Z,14
2023-08-28T09:10:49.939Z,14.2
2023-08-28T09:11:49.842Z,14.1
2023-08-28T09:12:49.872Z,14
2023-08-28T09:13:49.865Z,14
2023-08-28T09:15:50.588Z,13.9
2023-08-28T09:16:50.309Z,13.8
2023-08-28T09:17:50.045Z,14
2023-08-28T09:18:49.816Z,14
2023-08-28T09:19:50.358Z,14
2023-08-28T09:20:49.834Z,14
2023-08-28T09:21:50.162Z,14
2023-08-28T09:22:53.770Z,14
2023-08-28T09:23:51.573Z,14.1
2023-08-28T09:24:50.117Z,14.1
2023-08-28T09:25:49.834Z,14
2023-08-28T09:26:49.859Z,14.1
2023-08-28T09:27:50.385Z,14
2023-08-28T09:28:49.837Z,14
2023-08-28T09:29:51.873Z,14
2023-08-28T09:30:49.888Z,14.2
2023-08-28T09:31:49.889Z,14.1
2023-08-28T09:32:49.843Z,14.2
2023-08-28T09:34:05.415Z,14
2023-08-28T09:34:50.223Z,14.2
2023-08-28T09:35:49.853Z,14.2
2023-08-28T09:36:50.028Z,14.1
2023-08-28T09:37:49.829Z,14
2023-08-28T09:38:50.469Z,13.9
2023-08-28T09:39:50.668Z,14
2023-08-28T09:40:49.813Z,14.1
2023-08-28T09:41:44.339Z,14.1
2023-08-28T09:42:50.707Z,14.1
2023-08-28T09:43:50.293Z,14.3
2023-08-28T09:44:48.989Z,14.3
2023-08-28T09:45:50.208Z,14.1
2023-08-28T09:46:49.813Z,14.3
2023-08-28T09:47:49.867Z,14.1
2023-08-28T09:48:49.829Z,14
2023-08-28T09:49:49.828Z,14.2
2023-08-28T09:50:50.053Z,14.3
2023-08-28T09:51:49.835Z,14.2
2023-08-28T09:52:49.838Z,14.4
2023-08-28T09:53:50.136Z,14.3
2023-08-28T09:54:49.816Z,14.2
2023-08-28T09:55:50.092Z,14
2023-08-28T09:56:50.374Z,14.1
2023-08-28T09:57:50.190Z,14.2
2023-08-28T09:58:49.835Z,14.1
2023-08-28T09:59:49.839Z,14.1
2023-08-28T10:00:50.634Z,14.2
2023-08-28T10:01:49.839Z,14.3
2023-08-28T10:02:49.919Z,14.2
2023-08-28T10:03:50.616Z,14.3
2023-08-28T10:05:49.845Z,14.2
2023-08-28T10:06:50.953Z,14.2
2023-08-28T10:07:49.829Z,13.9
2023-08-28T10:08:49.851Z,14
2023-08-28T10:09:49.829Z,14
2023-08-28T10:10:49.832Z,14
2023-08-28T10:11:49.848Z,14.1
2023-08-28T10:12:50.763Z,14
2023-08-28T10:13:49.862Z,14.1
2023-08-28T10:14:49.250Z,14.2
2023-08-28T10:15:50.375Z,14.1
2023-08-28T10:16:50.205Z,14.2
2023-08-28T10:17:50.190Z,14.3
2023-08-28T10:18:49.826Z,14.2
2023-08-28T10:19:49.855Z,14.1
2023-08-28T10:20:50.099Z,14
2023-08-28T10:21:50.676Z,14
2023-08-28T10:22:50.355Z,14
2023-08-28T10:23:50.326Z,13.9
2023-08-28T10:24:49.837Z,13.7
2023-08-28T10:25:49.835Z,13.8
2023-08-28T10:26:49.865Z,13.7
2023-08-28T10:27:49.872Z,13.6
2023-08-28T10:28:49.845Z,13.7
2023-08-28T10:29:50.334Z,13.7
2023-08-28T10:32:50.622Z,13.9
2023-08-28T10:33:49.840Z,13.7
2023-08-28T10:34:49.853Z,13.8
2023-08-28T10:35:49.935Z,13.7
2023-08-28T10:37:50.056Z,13.7
2023-08-28T10:38:57.254Z,13.9
2023-08-28T10:40:50.605Z,13.8
2023-08-28T10:42:49.827Z,13.7
2023-08-28T10:43:49.920Z,13.9
2023-08-28T10:44:48.989Z,13.9
2023-08-28T10:45:49.923Z,14.1
2023-08-28T10:46:49.878Z,13.9
2023-08-28T10:47:50.075Z,13.8
2023-08-28T10:48:49.844Z,13.8
2023-08-28T10:50:49.830Z,13.9
2023-08-28T10:52:49.775Z,13.7
2023-08-28T10:53:50.273Z,13.6
2023-08-28T10:54:49.850Z,13.7
2023-08-28T10:55:49.867Z,13.5
2023-08-28T10:56:49.877Z,13.5
2023-08-28T10:57:50.318Z,13.5
2023-08-28T10:58:49.829Z,13.4
2023-08-28T10:59:50.504Z,13.5
2023-08-28T11:00:50.609Z,13.7
2023-08-28T11:01:49.872Z,13.6
2023-08-28T11:02:49.870Z,13.5
2023-08-28T11:03:49.954Z,13.4
2023-08-28T11:04:50.367Z,13.6
2023-08-28T11:05:50.363Z,13.6
2023-08-28T11:06:50.404Z,13.8
2023-08-28T11:07:49.948Z,13.9
2023-08-28T11:08:49.859Z,14
2023-08-28T11:09:49.874Z,13.7
2023-08-28T11:10:49.876Z,13.7
2023-08-28T11:11:49.847Z,13.1
2023-08-28T11:12:49.864Z,13
2023-08-28T11:13:49.863Z,13.2
2023-08-28T11:14:53.746Z,13.3
2023-08-28T11:15:50.006Z,13.3
2023-08-28T11:16:50.714Z,13.2
2023-08-28T11:17:50.540Z,13.2
2023-08-28T11:18:49.860Z,13.2
2023-08-28T11:19:49.839Z,13.3
2023-08-28T11:20:49.867Z,13.1
2023-08-28T11:21:50.259Z,12.9
2023-08-28T11:23:50.522Z,13
2023-08-28T11:24:49.880Z,13
2023-08-28T11:25:50.320Z,13.2
2023-08-28T11:26:50.256Z,13.2
2023-08-28T11:27:50.645Z,13.1
2023-08-28T11:28:49.916Z,13.1
2023-08-28T11:29:50.166Z,13.1
2023-08-28T11:30:50.674Z,13.2
2023-08-28T11:31:49.877Z,13
2023-08-28T11:32:50.011Z,13.1
2023-08-28T11:33:50.630Z,13
2023-08-28T11:34:49.923Z,12.9
2023-08-28T11:35:50.855Z,13
2023-08-28T11:36:49.845Z,13
2023-08-28T11:37:50.439Z,12.8
2023-08-28T11:38:50.647Z,12.4
2023-08-28T11:39:50.553Z,12.6
2023-08-28T11:40:50.528Z,12.6
2023-08-28T11:41:49.863Z,12.8
2023-08-28T11:42:50.115Z,12.6
2023-08-28T11:43:49.916Z,12.4
2023-08-28T11:44:48.994Z,12.8
2023-08-28T11:45:49.931Z,13
2023-08-28T11:46:49.925Z,13.1
2023-08-28T11:47:50.341Z,12.9
2023-08-28T11:48:49.984Z,12.8
2023-08-28T11:49:49.853Z,12.8
2023-08-28T11:50:50.344Z,12.8
2023-08-28T11:51:49.859Z,12.5
2023-08-28T11:52:50.546Z,12.3
2023-08-28T11:53:49.990Z,12
2023-08-28T11:54:50.466Z,12.1
2023-08-28T11:55:49.879Z,12.1
2023-08-28T11:56:50.586Z,12
2023-08-28T11:57:49.865Z,11.9
2023-08-28T11:58:50.260Z,11.9
2023-08-28T11:59:49.857Z,12.2
2023-08-28T12:00:49.867Z,12.2
2023-08-28T12:01:49.894Z,12.2
2023-08-28T12:02:50.107Z,11.9
2023-08-28T12:03:50.436Z,12.3
2023-08-28T12:05:49.869Z,12.5
2023-08-28T12:06:50.459Z,12.6
2023-08-28T12:07:49.904Z,12.6
2023-08-28T12:08:49.901Z,12
2023-08-28T12:10:49.855Z,11.5
2023-08-28T12:11:50.074Z,11.4
2023-08-28T12:12:49.849Z,11.7
2023-08-28T12:13:50.270Z,11.8
2023-08-28T12:14:49.789Z,11.9
2023-08-28T12:15:49.896Z,11.6
2023-08-28T12:16:49.968Z,11.9
2023-08-28T12:17:50.795Z,12.1
2023-08-28T12:19:49.864Z,12.1
2023-08-28T12:20:49.897Z,12.2
2023-08-28T12:21:49.866Z,12.4
2023-08-28T12:22:50.196Z,12.1
2023-08-28T12:23:50.587Z,12
2023-08-28T12:24:50.275Z,12
2023-08-28T12:25:49.861Z,11.7
2023-08-28T12:26:50.447Z,11.9
2023-08-28T12:27:50.024Z,12.4
2023-08-28T12:28:50.145Z,12.5
2023-08-28T12:29:49.964Z,12.4
2023-08-28T12:30:50.880Z,12
2023-08-28T12:31:50.823Z,12.2
2023-08-28T12:32:49.915Z,12
2023-08-28T12:33:49.870Z,11.9
2023-08-28T12:34:50.253Z,11.6
2023-08-28T12:35:49.881Z,11.8
2023-08-28T12:36:49.896Z,11.9
2023-08-28T12:37:50.780Z,12.1
2023-08-28T12:38:49.871Z,12.3
2023-08-28T12:39:49.922Z,12.3
2023-08-28T12:40:49.862Z,12.2
2023-08-28T12:41:49.887Z,12.2
2023-08-28T12:42:49.874Z,12.3
2023-08-28T12:43:49.898Z,12.5
2023-08-28T12:44:48.960Z,12.2
2023-08-28T12:45:49.923Z,12.1
2023-08-28T12:46:50.052Z,12
2023-08-28T12:47:49.901Z,11.9
2023-08-28T12:48:49.899Z,11.8
2023-08-28T12:49:49.882Z,11.8
2023-08-28T12:50:50.267Z,11.7
2023-08-28T12:51:49.916Z,11.7
2023-08-28T12:52:49.872Z,11.8
2023-08-28T12:53:50.472Z,11.9
2023-08-28T12:55:49.870Z,11.7
2023-08-28T12:56:49.963Z,11.7
2023-08-28T12:57:50.418Z,11.6
2023-08-28T12:58:49.898Z,11.6
2023-08-28T12:59:50.857Z,11.5
2023-08-28T13:00:49.890Z,11.3
2023-08-28T13:01:49.909Z,11.5
2023-08-28T13:02:49.891Z,11.4
2023-08-28T13:03:50.283Z,11.1
2023-08-28T13:04:49.881Z,11.4
2023-08-28T13:05:49.887Z,11.5
2023-08-28T13:06:49.952Z,11.5
2023-08-28T13:07:49.880Z,11.4
2023-08-28T13:08:50.667Z,11.3
2023-08-28T13:09:49.860Z,11.6
2023-08-28T13:10:49.877Z,11.8
2023-08-28T13:11:49.912Z,11.8
2023-08-28T13:12:50.453Z,11.7
2023-08-28T13:13:49.884Z,11.6
2023-08-28T13:15:50.489Z,11.7
2023-08-28T13:16:49.999Z,11.6
2023-08-28T13:17:49.924Z,11.2
2023-08-28T13:18:49.895Z,11.2
2023-08-28T13:20:49.887Z,11.4
2023-08-28T13:21:50.414Z,11.4
2023-08-28T13:22:49.805Z,11.5
2023-08-28T13:23:50.479Z,11.6
2023-08-28T13:24:49.933Z,11.6
2023-08-28T13:25:49.896Z,11.6
2023-08-28T13:26:50.193Z,11.5
2023-08-28T13:27:50.432Z,11.5
2023-08-28T13:28:49.889Z,11.4
2023-08-28T13:29:49.905Z,11.3
2023-08-28T13:30:50.647Z,11.5
2023-08-28T13:31:49.920Z,11.5
2023-08-28T13:32:50.313Z,11.6
2023-08-28T13:33:49.896Z,11.7
2023-08-28T13:34:49.876Z,11.6
2023-08-28T13:35:49.900Z,11.6
2023-08-28T13:36:50.220Z,11.8
2023-08-28T13:37:50.864Z,11.9
2023-08-28T13:38:50.804Z,11.9
2023-08-28T13:39:50.086Z,11.8
2023-08-28T13:40:49.895Z,11.7
2023-08-28T13:41:49.897Z,11.9
2023-08-28T13:42:49.902Z,11.9
2023-08-28T13:43:49.883Z,11.8
2023-08-28T13:44:49.646Z,11.8
2023-08-28T13:45:50.070Z,11.9
2023-08-28T13:46:50.056Z,12.2
2023-08-28T13:47:50.055Z,11.9
2023-08-28T13:48:49.908Z,11.7
2023-08-28T13:49:50.567Z,11.7
2023-08-28T13:50:50.825Z,11.4
2023-08-28T13:51:49.891Z,11.4
2023-08-28T13:52:49.907Z,11.5
2023-08-28T13:53:49.913Z,11.6
2023-08-28T13:54:49.897Z,11.7
2023-08-28T13:55:49.971Z,11.8
2023-08-28T13:56:49.905Z,11.6
2023-08-28T13:57:50.847Z,11.7
2023-08-28T13:58:50.265Z,11.6
2023-08-28T14:00:49.891Z,11.8
2023-08-28T14:01:50.106Z,11.6
2023-08-28T14:02:50.427Z,11.6
2023-08-28T14:03:49.989Z,11.7
2023-08-28T14:04:50.571Z,11.9
2023-08-28T14:05:49.889Z,12.1
2023-08-28T14:06:50.381Z,11.8
2023-08-28T14:07:50.206Z,12
2023-08-28T14:08:49.905Z,12
2023-08-28T14:09:50.189Z,12
2023-08-28T14:10:49.976Z,11.7
2023-08-28T14:11:50.690Z,11.7
2023-08-28T14:12:49.882Z,11.8